createdAt,value
2018-06-25T00:02:13.507Z,9.80
2018-06-25T00:04:41.787Z,8.93
2018-06-25T00:07:10.152Z,7.90
2018-06-25T00:09:38.915Z,11.67
2018-06-25T00:12:07.227Z,9.50
2018-06-25T00:14:36.100Z,12.33
2018-06-25T00:17:04.766Z,9.67
2018-06-25T00:19:33.377Z,12.53
2018-06-25T00:22:01.660Z,12.13
2018-06-25T00:24:29.718Z,10.70
2018-06-25T00:26:58.021Z,10.17
2018-06-25T00:29:26.788Z,11.00
2018-06-25T00:31:55.204Z,14.80
2018-06-25T00:34:23.533Z,11.77
2018-06-25T00:36:51.856Z,12.80
2018-06-25T00:39:20.308Z,9.80
2018-06-25T00:41:48.888Z,10.78
2018-06-25T00:44:17.800Z,10.45
2018-06-25T00:46:46.391Z,11.77
2018-06-25T00:49:15.040Z,14.20
2018-06-25T00:51:43.346Z,8.47
2018-06-25T00:54:12.345Z,11.33
2018-06-25T00:56:41.099Z,10.70
2018-06-25T00:59:20.861Z,13.55
2018-06-25T01:01:49.205Z,11.93
2018-06-25T01:04:17.495Z,13.23
2018-06-25T01:06:46.136Z,12.53
2018-06-25T01:09:14.764Z,10.00
2018-06-25T01:11:43.324Z,9.67
2018-06-25T01:14:12.233Z,13.00
2018-06-25T01:16:40.802Z,14.25
2018-06-25T01:19:09.101Z,13.90
2018-06-25T01:21:38.012Z,12.63
2018-06-25T01:24:06.404Z,12.90
2018-06-25T01:26:34.703Z,18.83
2018-06-25T01:29:03.068Z,16.32
2018-06-25T01:31:31.360Z,13.40
2018-06-25T01:33:59.788Z,12.47
2018-06-25T01:36:28.172Z,20.77
2018-06-25T01:38:56.478Z,18.10
2018-06-25T01:41:24.857Z,15.40
2018-06-25T01:43:53.287Z,17.90
2018-06-25T01:46:21.764Z,17.83
2018-06-25T01:48:50.391Z,12.23
2018-06-25T01:51:19.014Z,13.98
2018-06-25T01:53:47.686Z,14.07
2018-06-25T01:56:16.767Z,14.73
2018-06-25T01:58:45.176Z,10.80
2018-06-25T02:01:14.400Z,14.00
2018-06-25T02:03:42.476Z,10.63
2018-06-25T02:06:11.535Z,14.67
2018-06-25T02:08:39.907Z,11.30
2018-06-25T02:11:08.737Z,11.50
2018-06-25T02:13:38.116Z,13.60
2018-06-25T02:16:07.046Z,15.37
2018-06-25T02:18:35.715Z,10.82
2018-06-25T02:21:04.215Z,12.80
2018-06-25T02:23:32.973Z,14.80
2018-06-25T02:26:01.516Z,13.00
2018-06-25T02:28:29.971Z,17.67
2018-06-25T02:30:58.667Z,10.90
2018-06-25T02:33:27.275Z,11.40
2018-06-25T02:35:56.002Z,10.50
2018-06-25T02:38:25.040Z,17.87
2018-06-25T02:40:53.786Z,13.77
2018-06-25T02:43:22.109Z,13.50
2018-06-25T02:45:50.417Z,12.00
2018-06-25T02:48:19.219Z,11.80
2018-06-25T02:50:47.523Z,12.60
2018-06-25T02:53:17.411Z,12.23
2018-06-25T02:55:45.995Z,14.53
2018-06-25T02:58:14.572Z,15.30
2018-06-25T03:00:42.887Z,14.00
2018-06-25T03:03:11.312Z,16.80
2018-06-25T03:05:39.596Z,13.70
2018-06-25T03:08:08.169Z,15.33
2018-06-25T03:10:36.989Z,11.70
2018-06-25T03:13:05.300Z,23.50
2018-06-25T03:15:33.848Z,11.10
2018-06-25T03:18:02.148Z,13.63
2018-06-25T03:20:30.464Z,18.03
2018-06-25T03:22:58.755Z,12.23
2018-06-25T03:25:27.339Z,16.42
2018-06-25T03:27:55.687Z,10.97
2018-06-25T03:30:24.684Z,11.80
2018-06-25T03:32:53.311Z,13.10
2018-06-25T03:35:21.873Z,12.67
2018-06-25T03:37:50.211Z,11.10
2018-06-25T03:40:18.835Z,11.75
2018-06-25T03:42:47.641Z,11.43
2018-06-25T03:45:16.027Z,11.53
2018-06-25T03:47:44.935Z,15.18
2018-06-25T03:50:13.561Z,12.70
2018-06-25T03:52:41.898Z,13.10
2018-06-25T03:55:10.460Z,10.30
2018-06-25T03:57:38.782Z,11.20
2018-06-25T04:00:07.717Z,11.73
2018-06-25T04:02:36.344Z,11.57
2018-06-25T04:05:05.536Z,11.80
2018-06-25T04:07:33.980Z,12.80
2018-06-25T04:10:02.329Z,9.47
2018-06-25T04:12:30.370Z,12.53
2018-06-25T04:14:58.678Z,13.47
2018-06-25T04:17:27.253Z,12.95
2018-06-25T04:19:55.828Z,12.20
2018-06-25T04:22:24.233Z,9.47
2018-06-25T04:24:52.556Z,8.83
2018-06-25T04:27:20.861Z,10.47
2018-06-25T04:29:49.504Z,12.33
2018-06-25T04:32:18.075Z,11.10
2018-06-25T04:34:46.643Z,12.73
2018-06-25T04:37:14.951Z,12.50
2018-06-25T04:39:43.246Z,6.93
2018-06-25T04:42:11.887Z,9.43
2018-06-25T04:44:40.639Z,10.00
2018-06-25T04:47:09.249Z,10.38
2018-06-25T04:49:37.636Z,8.97
2018-06-25T04:52:06.056Z,8.60
2018-06-25T04:54:34.557Z,8.07
2018-06-25T04:57:02.899Z,8.33
2018-06-25T04:59:31.629Z,7.13
2018-06-25T05:02:00.185Z,10.77
2018-06-25T05:04:28.909Z,8.13
2018-06-25T05:06:57.812Z,8.23
2018-06-25T05:09:26.361Z,13.53
2018-06-25T05:11:55.076Z,7.50
2018-06-25T05:14:23.740Z,6.55
2018-06-25T05:16:52.080Z,7.00
2018-06-25T05:19:20.757Z,6.40
2018-06-25T05:21:49.374Z,5.83
2018-06-25T05:24:18.064Z,8.10
2018-06-25T05:26:46.692Z,10.60
2018-06-25T05:29:15.132Z,7.17
2018-06-25T05:31:43.957Z,7.93
2018-06-25T05:34:12.312Z,8.10
2018-06-25T05:36:40.662Z,10.60
2018-06-25T05:39:10.723Z,7.63
2018-06-25T05:41:39.683Z,7.70
2018-06-25T05:44:08.384Z,11.57
2018-06-25T05:46:36.764Z,8.90
2018-06-25T05:49:05.576Z,6.63
2018-06-25T05:51:33.945Z,6.83
2018-06-25T05:54:02.330Z,10.03
2018-06-25T05:56:30.897Z,7.33
2018-06-25T05:58:59.605Z,7.83
2018-06-25T06:01:28.959Z,6.90
2018-06-25T06:03:57.939Z,8.03
2018-06-25T06:06:26.907Z,7.25
2018-06-25T06:08:55.537Z,6.20
2018-06-25T06:11:24.525Z,6.10
2018-06-25T06:13:53.631Z,9.23
2018-06-25T06:16:22.396Z,6.80
2018-06-25T06:18:51.373Z,6.58
2018-06-25T06:21:19.944Z,9.70
2018-06-25T06:23:48.560Z,8.40
2018-06-25T06:26:16.917Z,7.60
2018-06-25T06:28:45.733Z,8.88
2018-06-25T06:31:14.209Z,5.00
2018-06-25T06:33:42.815Z,6.33
2018-06-25T06:36:11.696Z,6.20
2018-06-25T06:38:40.613Z,7.30
2018-06-25T06:41:09.251Z,5.53
2018-06-25T06:43:38.122Z,10.53
2018-06-25T06:46:06.753Z,8.43
2018-06-25T06:48:34.870Z,3.67
2018-06-25T06:51:03.176Z,7.87
2018-06-25T06:53:31.316Z,14.60
2018-06-25T06:55:59.618Z,4.80
2018-06-25T06:58:27.693Z,6.27
2018-06-25T07:00:56.876Z,7.03
2018-06-25T07:03:25.789Z,10.40
2018-06-25T07:05:54.145Z,6.33
2018-06-25T07:08:22.589Z,5.57
2018-06-25T07:10:51.268Z,9.63
2018-06-25T07:13:19.826Z,6.87
2018-06-25T07:15:48.124Z,6.20
2018-06-25T07:18:16.420Z,7.80
2018-06-25T07:20:44.795Z,6.70
2018-06-25T07:23:13.252Z,9.00
2018-06-25T07:25:42.004Z,5.83
2018-06-25T07:28:10.079Z,9.13
2018-06-25T07:30:38.656Z,7.25
2018-06-25T07:33:06.983Z,5.47
2018-06-25T07:35:35.788Z,9.07
2018-06-25T07:38:04.499Z,10.43
2018-06-25T07:40:33.272Z,6.40
2018-06-25T07:43:01.713Z,4.30
2018-06-25T07:45:30.349Z,5.30
2018-06-25T07:47:58.689Z,6.27
2018-06-25T07:50:27.073Z,7.13
2018-06-25T07:52:55.425Z,8.63
2018-06-25T07:55:23.777Z,4.40
2018-06-25T07:57:52.121Z,4.77
2018-06-25T08:00:20.850Z,5.13
2018-06-25T08:02:49.366Z,6.97
2018-06-25T08:05:17.850Z,4.57
2018-06-25T08:07:46.620Z,7.50
2018-06-25T08:10:15.260Z,4.60
2018-06-25T08:12:44.192Z,10.43
2018-06-25T08:15:12.587Z,3.70
2018-06-25T08:17:41.303Z,3.30
2018-06-25T08:20:09.840Z,4.03
2018-06-25T08:22:38.584Z,5.47
2018-06-25T08:25:06.947Z,3.60
2018-06-25T08:27:35.488Z,3.67
2018-06-25T08:30:04.235Z,3.33
2018-06-25T08:32:32.759Z,2.60
2018-06-25T08:35:01.099Z,4.17
2018-06-25T08:37:29.827Z,4.33
2018-06-25T08:39:58.224Z,3.60
2018-06-25T08:42:26.722Z,5.00
2018-06-25T08:44:55.101Z,3.40
2018-06-25T08:47:23.999Z,4.20
2018-06-25T08:49:52.301Z,4.70
2018-06-25T08:52:20.588Z,3.77
2018-06-25T08:54:49.018Z,4.30
2018-06-25T08:57:18.025Z,11.77
2018-06-25T08:59:46.828Z,4.83
2018-06-25T09:02:15.252Z,3.43
2018-06-25T09:04:43.815Z,3.43
2018-06-25T09:07:12.123Z,2.53
2018-06-25T09:09:41.905Z,3.43
2018-06-25T09:12:10.623Z,3.50
2018-06-25T09:14:39.239Z,4.63
2018-06-25T09:17:07.870Z,3.37
2018-06-25T09:19:36.428Z,5.30
2018-06-25T09:22:04.758Z,3.67
2018-06-25T09:24:33.672Z,6.00
2018-06-25T09:27:01.965Z,5.33
2018-06-25T09:29:30.268Z,3.30
2018-06-25T09:31:59.376Z,3.33
2018-06-25T09:34:33.563Z,3.60
2018-06-25T09:37:02.799Z,3.30
2018-06-25T09:39:31.349Z,3.12
2018-06-25T09:42:00.259Z,3.00
2018-06-25T09:44:28.779Z,3.70
2018-06-25T09:46:57.265Z,4.00
2018-06-25T09:49:25.998Z,3.15
2018-06-25T09:51:54.461Z,3.37
2018-06-25T09:54:22.756Z,3.07
2018-06-25T09:56:51.209Z,3.13
2018-06-25T09:59:19.784Z,4.97
2018-06-25T10:01:48.370Z,3.13
2018-06-25T10:04:16.840Z,3.63
2018-06-25T10:06:45.397Z,13.83
2018-06-25T10:09:13.744Z,4.30
2018-06-25T10:11:42.476Z,4.83
2018-06-25T10:14:53.620Z,2.87
2018-06-25T10:17:22.084Z,2.50
2018-06-25T10:19:50.516Z,2.17
2018-06-25T10:22:19.088Z,2.27
2018-06-25T10:24:47.540Z,2.20
2018-06-25T10:27:16.284Z,2.62
2018-06-25T10:29:44.868Z,2.27
2018-06-25T10:32:13.287Z,2.63
2018-06-25T10:34:41.878Z,3.07
2018-06-25T10:37:10.352Z,2.20
2018-06-25T10:39:38.908Z,3.90
2018-06-25T10:42:07.969Z,2.77
2018-06-25T10:44:36.391Z,2.70
2018-06-25T10:47:05.371Z,5.97
2018-06-25T10:49:34.323Z,1.75
2018-06-25T10:52:03.343Z,2.73
2018-06-25T10:54:31.681Z,2.60
2018-06-25T10:57:00.303Z,1.95
2018-06-25T10:59:29.028Z,2.00
2018-06-25T11:01:57.746Z,3.70
2018-06-25T11:04:26.603Z,1.53
2018-06-25T11:06:55.211Z,2.15
2018-06-25T11:09:23.649Z,3.60
2018-06-25T11:11:52.345Z,1.97
2018-06-25T11:14:20.688Z,1.70
2018-06-25T11:16:49.039Z,4.03
2018-06-25T11:19:17.367Z,1.63
2018-06-25T11:21:45.987Z,2.00
2018-06-25T11:24:14.407Z,3.37
2018-06-25T11:26:43.002Z,2.33
2018-06-25T11:29:11.749Z,1.27
2018-06-25T11:31:40.077Z,1.60
2018-06-25T11:34:08.432Z,2.37
2018-06-25T11:36:36.780Z,2.53
2018-06-25T11:39:08.049Z,1.55
2018-06-25T11:41:36.588Z,1.40
2018-06-25T11:44:05.524Z,1.50
2018-06-25T11:46:34.232Z,1.17
2018-06-25T11:49:02.762Z,1.37
2018-06-25T11:51:31.054Z,1.40
2018-06-25T11:53:59.436Z,1.13
2018-06-25T11:56:28.176Z,1.03
2018-06-25T11:58:56.483Z,4.20
2018-06-25T12:01:25.123Z,1.23
2018-06-25T12:03:53.995Z,1.17
2018-06-25T12:06:23.295Z,4.13
2018-06-25T12:08:51.587Z,1.97
2018-06-25T12:11:20.216Z,1.50
2018-06-25T12:13:48.851Z,5.73
2018-06-25T12:16:17.286Z,2.07
2018-06-25T12:18:45.571Z,3.27
2018-06-25T12:21:14.007Z,1.93
2018-06-25T12:23:42.573Z,1.65
2018-06-25T12:26:11.205Z,4.30
2018-06-25T12:28:39.825Z,1.63
2018-06-25T12:31:08.134Z,1.90
2018-06-25T12:33:37.111Z,1.40
2018-06-25T12:36:05.693Z,2.10
2018-06-25T12:38:34.056Z,1.67
2018-06-25T12:41:02.610Z,4.67
2018-06-25T12:43:30.904Z,0.80
2018-06-25T12:45:59.740Z,1.20
2018-06-25T12:48:28.260Z,1.70
2018-06-25T12:50:56.940Z,1.10
2018-06-25T12:53:25.840Z,0.98
2018-06-25T12:55:54.884Z,1.62
2018-06-25T12:58:23.776Z,1.07
2018-06-25T13:00:52.064Z,1.57
2018-06-25T13:03:20.350Z,1.40
2018-06-25T13:05:48.924Z,1.30
2018-06-25T13:08:17.231Z,3.13
2018-06-25T13:10:45.904Z,0.73
2018-06-25T13:13:14.671Z,8.63
2018-06-25T13:15:42.984Z,1.00
2018-06-25T13:18:11.302Z,1.70
2018-06-25T13:20:40.047Z,0.73
2018-06-25T13:23:09.083Z,1.20
2018-06-25T13:25:37.489Z,0.90
2018-06-25T13:28:05.931Z,1.20
2018-06-25T13:30:34.220Z,1.00
2018-06-25T13:33:03.163Z,1.50
2018-06-25T13:35:31.445Z,0.80
2018-06-25T13:38:00.019Z,1.77
2018-06-25T13:40:28.743Z,1.00
2018-06-25T13:42:58.045Z,1.20
2018-06-25T13:45:26.597Z,4.93
2018-06-25T13:47:55.605Z,1.37
2018-06-25T13:50:23.991Z,4.23
2018-06-25T13:52:52.341Z,0.83
2018-06-25T13:55:20.684Z,4.43
2018-06-25T13:57:49.032Z,2.10
2018-06-25T14:00:17.413Z,2.17
2018-06-25T14:02:46.192Z,1.00
2018-06-25T14:05:15.160Z,1.92
2018-06-25T14:07:44.100Z,2.17
2018-06-25T14:10:12.812Z,1.37
2018-06-25T14:12:41.361Z,3.07
2018-06-25T14:15:10.152Z,1.30
2018-06-25T14:17:38.720Z,1.27
2018-06-25T14:20:07.732Z,1.32
2018-06-25T14:22:36.367Z,1.40
2018-06-25T14:25:05.393Z,2.03
2018-06-25T14:27:39.261Z,1.60
2018-06-25T14:30:13.672Z,1.87
2018-06-25T14:32:42.327Z,3.07
2018-06-25T14:35:14.860Z,3.93
2018-06-25T14:37:43.504Z,1.27
2018-06-25T14:40:11.896Z,1.80
2018-06-25T14:42:40.549Z,2.00
2018-06-25T14:45:09.463Z,5.05
2018-06-25T14:47:38.024Z,6.67
2018-06-25T14:50:06.688Z,1.30
2018-06-25T14:52:34.814Z,1.30
2018-06-25T14:55:03.384Z,1.10
2018-06-25T14:57:31.848Z,1.27
2018-06-25T15:00:00.786Z,4.10
2018-06-25T15:02:29.681Z,3.30
2018-06-25T15:04:58.124Z,1.57
2018-06-25T15:07:26.821Z,1.23
2018-06-25T15:09:55.355Z,1.57
2018-06-25T15:12:23.730Z,3.67
2018-06-25T15:14:52.323Z,1.30
2018-06-25T15:17:20.664Z,1.37
2018-06-25T15:19:49.293Z,3.13
2018-06-25T15:22:18.070Z,15.45
2018-06-25T15:24:46.780Z,21.83
2018-06-25T15:27:15.120Z,2.90
2018-06-25T15:29:43.456Z,3.60
2018-06-25T15:32:11.816Z,3.83
2018-06-25T15:34:40.332Z,5.73
2018-06-25T15:37:08.722Z,4.57
2018-06-25T15:39:37.081Z,2.40
2018-06-25T15:42:05.807Z,4.20
2018-06-25T15:44:34.172Z,1.70
2018-06-25T15:47:02.786Z,2.02
2018-06-25T15:49:31.572Z,3.37
2018-06-25T15:52:00.080Z,3.03
2018-06-25T15:54:28.678Z,4.50
2018-06-25T15:56:57.178Z,2.27
2018-06-25T15:59:25.799Z,2.20
2018-06-25T16:01:54.339Z,1.70
2018-06-25T16:04:22.947Z,1.20
2018-06-25T16:06:51.345Z,2.50
2018-06-25T16:09:19.884Z,2.77
2018-06-25T16:11:48.430Z,2.20
2018-06-25T16:14:17.172Z,1.63
2018-06-25T16:16:45.659Z,1.20
2018-06-25T16:19:14.010Z,1.00
2018-06-25T16:21:42.639Z,1.02
2018-06-25T16:24:10.985Z,1.40
2018-06-25T16:26:39.623Z,2.10
2018-06-25T16:29:08.568Z,3.80
2018-06-25T16:31:37.579Z,0.90
2018-06-25T16:34:06.039Z,2.40
2018-06-25T16:36:34.875Z,1.33
2018-06-25T16:39:06.277Z,4.97
2018-06-25T16:41:35.851Z,2.50
2018-06-25T16:44:05.175Z,6.33
2018-06-25T16:46:33.710Z,6.37
2018-06-25T16:49:02.247Z,1.70
2018-06-25T16:51:31.234Z,1.93
2018-06-25T16:53:59.873Z,6.70
2018-06-25T16:56:28.367Z,4.13
2018-06-25T16:58:56.923Z,1.83
2018-06-25T17:01:25.323Z,2.87
2018-06-25T17:03:54.000Z,1.50
2018-06-25T17:06:22.872Z,1.50
2018-06-25T17:08:51.580Z,1.67
2018-06-25T17:11:19.876Z,1.77
2018-06-25T17:13:48.157Z,1.00
2018-06-25T17:16:17.645Z,1.67
2018-06-25T17:18:46.484Z,1.30
2018-06-25T17:21:14.916Z,2.13
2018-06-25T17:23:43.328Z,1.53
2018-06-25T17:26:12.044Z,2.80
2018-06-25T17:28:40.930Z,1.02
2018-06-25T17:31:09.854Z,1.67
2018-06-25T17:33:38.156Z,3.03
2018-06-25T17:36:06.708Z,1.77
2018-06-25T17:38:35.295Z,1.45
2018-06-25T17:41:03.921Z,2.13
2018-06-25T17:43:32.472Z,1.47
2018-06-25T17:46:00.819Z,1.20
2018-06-25T17:48:29.681Z,1.70
2018-06-25T17:50:58.066Z,0.90
2018-06-25T17:53:26.645Z,0.85
2018-06-25T17:55:55.022Z,1.93
2018-06-25T17:58:23.915Z,1.33
2018-06-25T18:00:52.367Z,0.70
2018-06-25T18:03:21.115Z,0.93
2018-06-25T18:05:50.356Z,0.70
2018-06-25T18:08:19.275Z,0.60
2018-06-25T18:10:47.649Z,1.07
2018-06-25T18:13:16.710Z,0.80
2018-06-25T18:15:45.511Z,3.17
2018-06-25T18:18:14.388Z,0.50
2018-06-25T18:20:44.192Z,0.80
2018-06-25T18:23:13.099Z,0.60
2018-06-25T18:25:42.029Z,0.62
2018-06-25T18:28:10.631Z,1.10
2018-06-25T18:30:39.087Z,2.30
2018-06-25T18:33:07.448Z,0.60
2018-06-25T18:35:35.878Z,0.80
2018-06-25T18:38:04.212Z,0.70
2018-06-25T18:40:32.873Z,0.70
2018-06-25T18:43:01.172Z,0.50
2018-06-25T18:45:29.737Z,0.55
2018-06-25T18:47:58.217Z,0.60
2018-06-25T18:50:26.555Z,0.60
2018-06-25T18:52:54.836Z,1.90
2018-06-25T18:55:23.486Z,1.93
2018-06-25T18:57:51.767Z,1.30
2018-06-25T19:00:20.385Z,3.43
2018-06-25T19:02:49.756Z,1.37
2018-06-25T19:05:18.060Z,6.33
2018-06-25T19:07:46.948Z,1.23
2018-06-25T19:10:16.188Z,2.37
2018-06-25T19:12:44.473Z,0.90
2018-06-25T19:15:13.373Z,2.45
2018-06-25T19:17:41.695Z,7.20
2018-06-25T19:20:10.215Z,1.00
2018-06-25T19:22:39.229Z,1.30
2018-06-25T19:25:07.800Z,1.43
2018-06-25T19:27:36.815Z,1.53
2018-06-25T19:30:05.746Z,1.45
2018-06-25T19:32:34.429Z,1.20
2018-06-25T19:35:03.010Z,3.98
2018-06-25T19:37:32.067Z,1.43
2018-06-25T19:40:00.700Z,1.63
2018-06-25T19:42:29.291Z,3.27
2018-06-25T19:44:57.879Z,2.95
2018-06-25T19:47:26.198Z,1.30
2018-06-25T19:49:55.111Z,1.67
2018-06-25T19:52:23.625Z,3.30
2018-06-25T19:54:52.214Z,3.42
2018-06-25T19:57:20.921Z,1.47
2018-06-25T19:59:49.230Z,1.60
2018-06-25T20:02:17.940Z,2.00
2018-06-25T20:04:46.988Z,1.40
2018-06-25T20:07:15.558Z,1.50
2018-06-25T20:09:43.860Z,3.30
2018-06-25T20:12:12.252Z,4.63
2018-06-25T20:14:41.128Z,4.27
2018-06-25T20:17:10.164Z,1.77
2018-06-25T20:19:38.917Z,1.70
2018-06-25T20:22:07.405Z,1.80
2018-06-25T20:24:36.192Z,1.50
2018-06-25T20:27:04.555Z,1.43
2018-06-25T20:29:33.472Z,5.15
2018-06-25T20:32:02.700Z,5.05
2018-06-25T20:34:31.402Z,1.80
2018-06-25T20:37:00.000Z,2.85
2018-06-25T20:39:28.548Z,2.47
2018-06-25T20:41:56.848Z,2.07
2018-06-25T20:44:25.489Z,1.70
2018-06-25T20:46:53.867Z,3.53
2018-06-25T20:49:22.711Z,2.67
2018-06-25T20:51:51.242Z,2.40
2018-06-25T20:54:20.203Z,1.93
2018-06-25T20:56:49.447Z,2.33
2018-06-25T20:59:18.440Z,2.95
2018-06-25T21:01:46.823Z,2.80
2018-06-25T21:04:15.459Z,2.20
2018-06-25T21:06:44.081Z,1.77
2018-06-25T21:09:12.841Z,2.63
2018-06-25T21:11:42.091Z,2.33
2018-06-25T21:14:10.459Z,1.90
2018-06-25T21:16:38.755Z,2.50
2018-06-25T21:19:07.317Z,2.17
2018-06-25T21:21:35.871Z,2.87
2018-06-25T21:24:04.165Z,2.23
2018-06-25T21:26:32.828Z,2.52
2018-06-25T21:29:01.445Z,2.95
2018-06-25T21:31:30.081Z,3.33
2018-06-25T21:33:58.389Z,2.23
2018-06-25T21:36:26.681Z,2.63
2018-06-25T21:38:55.316Z,2.40
2018-06-25T21:41:23.627Z,2.80
2018-06-25T21:43:52.852Z,4.37
2018-06-25T21:46:21.504Z,5.87
2018-06-25T21:48:50.156Z,3.05
2018-06-25T21:51:18.457Z,3.57
2018-06-25T21:53:47.292Z,2.80
2018-06-25T21:56:16.024Z,2.70
2018-06-25T21:58:44.548Z,2.40
2018-06-25T22:01:12.922Z,3.10
2018-06-25T22:03:41.435Z,4.37
2018-06-25T22:06:09.792Z,2.50
2018-06-25T22:08:38.400Z,2.70
2018-06-25T22:11:07.068Z,2.52
2018-06-25T22:13:36.021Z,2.85
2018-06-25T22:16:04.732Z,3.20
2018-06-25T22:18:33.575Z,3.33
2018-06-25T22:21:02.186Z,2.00
2018-06-25T22:23:30.528Z,2.37
2018-06-25T22:25:58.895Z,2.50
2018-06-25T22:28:27.597Z,2.77
2018-06-25T22:30:56.163Z,5.90
2018-06-25T22:33:24.525Z,2.03
2018-06-25T22:35:53.159Z,2.67
2018-06-25T22:38:21.553Z,2.47
2018-06-25T22:40:49.907Z,4.73
2018-06-25T22:43:18.237Z,2.50
2018-06-25T22:45:46.945Z,3.13
2018-06-25T22:48:15.564Z,3.47
2018-06-25T22:50:44.064Z,5.83
2018-06-25T22:53:12.706Z,3.10
2018-06-25T22:55:41.019Z,2.43
2018-06-25T22:58:09.332Z,2.70
2018-06-25T23:00:37.648Z,3.60
2018-06-25T23:03:06.404Z,2.90
2018-06-25T23:05:34.708Z,3.10
2018-06-25T23:08:03.024Z,3.10
2018-06-25T23:10:31.644Z,2.67
2018-06-25T23:12:59.980Z,2.10
2018-06-25T23:15:28.562Z,2.50
2018-06-25T23:17:56.880Z,3.20
2018-06-25T23:20:25.420Z,2.90
2018-06-25T23:22:57.092Z,4.70
2018-06-25T23:25:26.112Z,2.50
2018-06-25T23:27:54.508Z,3.90
2018-06-25T23:30:23.064Z,3.50
2018-06-25T23:32:51.688Z,3.20
2018-06-25T23:35:19.999Z,4.53
2018-06-25T23:37:48.275Z,5.43
2018-06-25T23:40:17.200Z,3.10
2018-06-25T23:42:45.758Z,2.92
2018-06-25T23:45:14.321Z,2.73
2018-06-25T23:47:42.646Z,3.00
2018-06-25T23:50:11.199Z,4.90
2018-06-25T23:52:39.487Z,2.50
2018-06-25T23:55:08.137Z,3.00
2018-06-25T23:57:36.808Z,3.13
